Time;durP1;ratioP1;P1;durP2;ratioP2;P2;SDS_P1;SDS_P2;PMS_P1;PMS_P2;Temp;Humidity;BMP_temperature;BMP_pressure;BME280_temperature;BME280_humidity;BME280_pressure;Samples;Min_cycle;Max_cycle;Signal;HPM_P1;HPM_P2
2023/06/13 00:01:24;;;;;;;5.00;4.60;;;21.50;86.30;;;;;;5035912;28;20208;-62
2023/06/13 00:03:53;;;;;;;5.90;5.30;;;21.50;86.50;;;;;;5028333;28;20208;-62
2023/06/13 00:06:21;;;;;;;8.87;5.07;;;21.40;86.80;;;;;;5035720;28;20213;-62
2023/06/13 00:08:48;;;;;;;6.80;5.70;;;21.30;87.10;;;;;;5031360;28;20202;-62
2023/06/13 00:11:15;;;;;;;8.27;4.73;;;21.20;87.40;;;;;;5030307;28;20229;-63
2023/06/13 00:13:45;;;;;;;5.17;4.50;;;21.10;87.70;;;;;;5035957;28;20222;-62
2023/06/13 00:16:12;;;;;;;5.33;4.83;;;21.00;88.00;;;;;;5033694;28;20191;-62
2023/06/13 00:18:39;;;;;;;5.30;4.90;;;21.00;88.40;;;;;;5029800;28;20199;-62
2023/06/13 00:21:07;;;;;;;7.97;5.37;;;20.90;88.70;;;;;;5038351;28;20270;-62
2023/06/13 00:23:34;;;;;;;7.30;5.20;;;20.90;88.90;;;;;;5036476;28;20215;-62
2023/06/13 00:26:01;;;;;;;6.83;5.07;;;20.90;89.20;;;;;;5032381;28;20225;-62
2023/06/13 00:28:28;;;;;;;8.60;5.27;;;20.80;89.30;;;;;;5037952;28;20198;-62
2023/06/13 00:30:55;;;;;;;4.33;3.93;;;20.90;89.30;;;;;;5023069;28;20204;-62
2023/06/13 00:33:31;;;;;;;9.50;5.10;;;20.90;89.60;;;;;;5022322;28;20214;-62
2023/06/13 00:35:58;;;;;;;7.83;5.30;;;20.90;89.70;;;;;;5036232;28;20203;-62
2023/06/13 00:38:28;;;;;;;5.77;5.23;;;20.80;89.70;;;;;;5030980;28;20282;-62
2023/06/13 00:40:57;;;;;;;7.87;5.70;;;20.80;89.90;;;;;;5012295;28;20202;-62
2023/06/13 00:43:27;;;;;;;6.30;5.70;;;20.80;90.00;;;;;;5034249;28;20289;-62
2023/06/13 00:45:55;;;;;;;6.77;5.47;;;20.80;90.00;;;;;;5029950;28;20203;-62
2023/06/13 00:48:22;;;;;;;7.63;5.70;;;20.80;90.10;;;;;;5031878;28;20246;-62
2023/06/13 00:50:50;;;;;;;7.07;5.67;;;20.80;90.40;;;;;;5038707;28;20193;-62
2023/06/13 00:53:19;;;;;;;7.30;5.67;;;20.70;90.20;;;;;;5028649;28;20309;-62
2023/06/13 00:55:49;;;;;;;7.57;5.83;;;20.70;90.30;;;;;;5029019;28;20305;-62
2023/06/13 00:58:16;;;;;;;7.80;6.10;;;20.70;90.40;;;;;;5037965;28;20198;-64
2023/06/13 01:00:44;;;;;;;8.63;5.57;;;20.70;90.50;;;;;;5028048;28;20202;-62
2023/06/13 01:03:15;;;;;;;10.00;5.20;;;20.70;90.50;;;;;;5033283;28;20512;-63
2023/06/13 01:05:43;;;;;;;6.60;5.97;;;20.70;90.50;;;;;;5044765;28;20289;-62
2023/06/13 01:08:13;;;;;;;9.13;7.13;;;20.70;90.60;;;;;;5028528;28;20636;-62
2023/06/13 01:10:41;;;;;;;8.33;6.70;;;20.70;90.70;;;;;;5037048;28;20242;-63
2023/06/13 01:13:29;;;;;;;7.03;6.10;;;20.70;90.70;;;;;;5044560;28;20604;-63
2023/06/13 01:16:14;;;;;;;6.63;5.93;;;20.60;90.90;;;;;;5028266;28;20296;-63
2023/06/13 01:18:43;;;;;;;7.33;6.63;;;20.60;90.90;;;;;;5037823;28;20210;-65
2023/06/13 01:21:13;;;;;;;9.03;6.50;;;20.60;91.00;;;;;;5038466;28;20202;-64
2023/06/13 01:23:51;;;;;;;10.63;6.50;;;20.60;91.10;;;;;;5035539;28;20606;-62
2023/06/13 01:26:40;;;;;;;8.53;5.97;;;20.50;91.20;;;;;;5040169;28;20215;-64
2023/06/13 01:29:09;;;;;;;6.97;6.27;;;20.50;91.20;;;;;;5036122;28;20204;-64
2023/06/13 01:31:37;;;;;;;7.93;5.57;;;20.50;91.20;;;;;;5037050;28;20202;-64
2023/06/13 01:34:05;;;;;;;7.00;6.30;;;20.50;91.20;;;;;;5041932;28;20294;-65
2023/06/13 01:36:32;;;;;;;8.67;6.20;;;20.50;91.30;;;;;;5044534;28;20294;-64
2023/06/13 01:39:00;;;;;;;6.67;6.07;;;20.50;91.40;;;;;;5036093;28;20204;-65
2023/06/13 01:41:27;;;;;;;7.20;6.50;;;20.50;91.50;;;;;;5042889;28;20202;-65
2023/06/13 01:43:54;;;;;;;7.53;5.67;;;20.50;91.50;;;;;;5033786;28;20226;-64
2023/06/13 01:46:29;;;;;;;7.30;6.57;;;20.50;91.60;;;;;;5036151;28;20259;-64
2023/06/13 01:49:16;;;;;;;6.80;6.13;;;20.50;91.70;;;;;;5034733;28;20238;-65
2023/06/13 01:52:02;;;;;;;9.53;6.60;;;20.50;91.70;;;;;;5036025;28;20276;-64
2023/06/13 01:54:32;;;;;;;8.47;6.97;;;20.50;91.70;;;;;;5032293;28;20211;-64
2023/06/13 01:57:04;;;;;;;8.13;7.00;;;20.50;91.70;;;;;;5041623;28;20221;-64
2023/06/13 01:59:33;;;;;;;9.33;7.27;;;20.50;91.70;;;;;;5033209;28;20293;-64
2023/06/13 02:02:01;;;;;;;8.37;6.67;;;20.50;91.80;;;;;;5034387;28;20278;-64
2023/06/13 02:04:28;;;;;;;9.10;7.43;;;20.50;91.90;;;;;;5037294;28;20204;-64
2023/06/13 02:06:55;;;;;;;8.63;7.17;;;20.50;92.00;;;;;;5028882;28;20204;-64
2023/06/13 02:09:23;;;;;;;8.90;8.00;;;20.50;92.10;;;;;;5034737;28;20232;-64
2023/06/13 02:11:50;;;;;;;8.80;7.90;;;20.50;92.20;;;;;;5040735;28;20210;-64
2023/06/13 02:14:17;;;;;;;9.17;7.73;;;20.50;92.30;;;;;;5029352;28;20290;-64
2023/06/13 02:16:44;;;;;;;10.73;8.57;;;20.40;92.40;;;;;;5040257;28;20537;-64
2023/06/13 02:19:13;;;;;;;10.00;9.00;;;20.40;92.50;;;;;;5038709;28;20199;-64
2023/06/13 02:21:45;;;;;;;9.73;8.63;;;20.50;92.60;;;;;;5030392;28;20205;-64
2023/06/13 02:24:14;;;;;;;11.20;9.13;;;20.40;92.90;;;;;;5036687;28;20211;-64
2023/06/13 02:26:42;;;;;;;10.17;8.47;;;20.40;93.00;;;;;;5040238;28;20218;-64
2023/06/13 02:29:09;;;;;;;15.50;10.53;;;20.40;93.50;;;;;;5029007;28;20283;-64
2023/06/13 02:31:38;;;;;;;15.73;9.67;;;20.40;93.80;;;;;;5037906;28;20281;-64
2023/06/13 02:34:05;;;;;;;14.80;9.10;;;20.40;94.10;;;;;;5039275;28;20223;-64
2023/06/13 02:36:32;;;;;;;11.63;9.10;;;20.40;94.20;;;;;;5034164;28;20206;-64
2023/06/13 02:39:03;;;;;;;10.70;9.70;;;20.40;94.50;;;;;;5040309;28;20231;-64
2023/06/13 02:41:30;;;;;;;11.63;9.10;;;20.40;94.90;;;;;;5024351;28;20211;-64
2023/06/13 02:43:57;;;;;;;11.00;9.90;;;20.40;95.10;;;;;;5027742;28;20199;-64
2023/06/13 02:46:24;;;;;;;10.00;9.03;;;20.50;95.40;;;;;;5038010;28;20544;-64
2023/06/13 02:48:51;;;;;;;10.00;8.77;;;20.40;95.60;;;;;;5032360;28;20248;-64
2023/06/13 02:51:18;;;;;;;11.90;8.70;;;20.40;95.70;;;;;;5034579;28;20274;-64
2023/06/13 02:53:46;;;;;;;11.90;8.80;;;20.50;95.80;;;;;;5024447;28;20194;-64
2023/06/13 02:56:13;;;;;;;18.03;8.37;;;20.50;95.90;;;;;;5037615;28;20207;-64
2023/06/13 02:58:40;;;;;;;10.93;8.27;;;20.50;96.10;;;;;;5031089;28;20592;-64
2023/06/13 03:01:08;;;;;;;11.30;8.40;;;20.50;96.20;;;;;;5040529;28;20203;-64
2023/06/13 03:03:35;;;;;;;11.27;8.43;;;20.50;96.30;;;;;;5021097;28;20203;-65
2023/06/13 03:06:04;;;;;;;10.63;7.60;;;20.50;96.40;;;;;;5021689;28;20291;-64
2023/06/13 03:08:37;;;;;;;11.80;7.67;;;20.50;96.50;;;;;;5040098;28;20221;-64
2023/06/13 03:11:08;;;;;;;9.93;7.73;;;20.50;96.70;;;;;;5036679;28;20530;-65
2023/06/13 03:13:36;;;;;;;8.47;7.37;;;20.50;96.70;;;;;;5034239;28;20214;-64
2023/06/13 03:16:04;;;;;;;11.87;8.33;;;20.50;96.80;;;;;;5034635;28;20326;-62
2023/06/13 03:18:31;;;;;;;9.10;6.90;;;20.50;96.80;;;;;;5034477;28;20218;-62
2023/06/13 03:20:58;;;;;;;8.10;7.03;;;20.50;96.80;;;;;;5034378;28;20594;-62
2023/06/13 03:23:25;;;;;;;9.50;6.67;;;20.40;96.80;;;;;;5042572;28;20654;-62
2023/06/13 03:25:53;;;;;;;11.37;7.63;;;20.40;96.70;;;;;;5029151;28;20255;-63
2023/06/13 03:28:22;;;;;;;9.17;7.13;;;20.40;96.60;;;;;;5030012;28;20647;-63
2023/06/13 03:30:51;;;;;;;14.20;6.83;;;20.30;96.50;;;;;;5025351;28;20216;-62
2023/06/13 03:33:20;;;;;;;10.37;7.20;;;20.30;96.50;;;;;;5030920;28;20206;-64
2023/06/13 03:35:48;;;;;;;8.87;7.70;;;20.30;96.50;;;;;;5021605;28;20224;-65
2023/06/13 03:38:19;;;;;;;8.03;7.10;;;20.20;96.60;;;;;;5039364;28;20684;-65
2023/06/13 03:40:46;;;;;;;10.93;7.13;;;20.30;96.60;;;;;;5033008;28;20210;-65
2023/06/13 03:43:13;;;;;;;9.63;6.77;;;20.20;96.60;;;;;;5032653;28;20545;-65
2023/06/13 03:45:41;;;;;;;9.23;7.80;;;20.20;96.70;;;;;;5037210;28;20230;-64
2023/06/13 03:48:08;;;;;;;12.10;7.43;;;20.20;96.70;;;;;;5027382;28;20209;-65
2023/06/13 03:50:35;;;;;;;12.17;7.07;;;20.20;96.70;;;;;;5022638;28;20300;-64
2023/06/13 03:53:02;;;;;;;10.53;7.57;;;20.20;96.80;;;;;;5026501;28;20214;-64
2023/06/13 03:55:29;;;;;;;10.73;6.73;;;20.10;96.80;;;;;;5030172;28;20220;-65
2023/06/13 03:57:57;;;;;;;16.33;7.67;;;20.10;96.80;;;;;;5036882;28;20194;-65
2023/06/13 04:00:25;;;;;;;8.57;6.87;;;20.10;96.90;;;;;;5028184;28;20475;-64
2023/06/13 04:02:53;;;;;;;9.80;6.87;;;20.10;96.90;;;;;;5022868;28;20210;-64
2023/06/13 04:05:21;;;;;;;8.40;6.40;;;20.10;96.90;;;;;;5032219;28;20298;-64
2023/06/13 04:07:53;;;;;;;9.00;5.93;;;20.10;96.80;;;;;;5044514;28;20267;-64
2023/06/13 04:10:20;;;;;;;7.87;5.87;;;20.00;96.80;;;;;;5033307;28;20210;-65
2023/06/13 04:12:48;;;;;;;11.00;5.70;;;20.00;96.80;;;;;;5031504;28;20202;-64
2023/06/13 04:15:15;;;;;;;10.00;6.30;;;20.00;96.80;;;;;;5039747;28;20222;-64
2023/06/13 04:17:42;;;;;;;7.30;6.00;;;20.00;96.80;;;;;;5016515;28;20227;-64
2023/06/13 04:20:19;;;;;;;9.30;6.33;;;20.00;96.80;;;;;;5031829;28;20210;-65
2023/06/13 04:22:47;;;;;;;8.97;6.43;;;20.00;96.80;;;;;;5038047;28;20250;-65
2023/06/13 04:25:15;;;;;;;9.27;6.33;;;20.00;96.80;;;;;;5031397;28;20659;-64
2023/06/13 04:27:48;;;;;;;15.80;7.00;;;20.10;96.70;;;;;;5034584;28;20217;-64
2023/06/13 04:30:16;;;;;;;6.20;5.70;;;20.10;96.70;;;;;;5021859;28;20207;-64
2023/06/13 04:32:45;;;;;;;6.93;5.83;;;20.10;96.70;;;;;;5026287;28;20215;-64
2023/06/13 04:35:16;;;;;;;10.07;7.00;;;20.10;96.60;;;;;;5031021;28;20225;-64
2023/06/13 04:37:46;;;;;;;6.87;6.17;;;20.20;96.60;;;;;;5033371;28;20210;-65
2023/06/13 04:40:13;;;;;;;8.10;6.03;;;20.20;96.50;;;;;;5024943;28;20207;-64
2023/06/13 04:42:47;;;;;;;10.13;6.43;;;20.20;96.40;;;;;;5032643;28;20257;-64
2023/06/13 04:45:20;;;;;;;9.63;6.73;;;20.20;96.30;;;;;;5036649;28;20271;-65
2023/06/13 04:47:48;;;;;;;6.73;5.87;;;20.20;96.20;;;;;;5029158;28;20206;-64
2023/06/13 04:50:25;;;;;;;8.73;7.00;;;20.20;96.30;;;;;;5036750;28;20206;-64
2023/06/13 04:52:55;;;;;;;8.47;7.20;;;20.20;96.30;;;;;;5038216;28;20203;-64
2023/06/13 04:55:25;;;;;;;7.03;5.73;;;20.20;96.30;;;;;;5027916;28;20252;-64
2023/06/13 04:57:52;;;;;;;9.50;6.43;;;20.20;96.30;;;;;;5035538;28;20206;-64
2023/06/13 05:00:20;;;;;;;7.97;7.10;;;20.10;96.30;;;;;;5034900;28;20264;-64
2023/06/13 05:02:47;;;;;;;7.30;6.50;;;20.20;96.30;;;;;;5031084;28;20201;-64
2023/06/13 05:05:16;;;;;;;7.87;6.77;;;20.20;96.20;;;;;;5037631;28;20600;-65
2023/06/13 05:07:44;;;;;;;8.90;7.70;;;20.20;96.20;;;;;;5034599;28;20237;-64
2023/06/13 05:10:12;;;;;;;8.40;7.50;;;20.20;96.20;;;;;;5033223;28;20202;-65
2023/06/13 05:12:44;;;;;;;8.27;7.30;;;20.20;96.10;;;;;;5038716;28;20208;-65
2023/06/13 05:15:11;;;;;;;8.50;7.77;;;20.20;96.00;;;;;;5029717;28;20719;-65
2023/06/13 05:17:38;;;;;;;8.77;7.83;;;20.20;96.00;;;;;;5032235;28;20277;-64
2023/06/13 05:20:06;;;;;;;11.17;8.20;;;20.20;96.10;;;;;;5041155;28;20198;-64
2023/06/13 05:22:33;;;;;;;8.93;6.90;;;20.20;96.10;;;;;;5034862;28;20199;-64
2023/06/13 05:25:00;;;;;;;14.07;7.90;;;20.20;96.10;;;;;;5039795;28;20592;-64
2023/06/13 05:27:27;;;;;;;12.73;7.57;;;20.20;96.00;;;;;;5037771;28;20276;-64
2023/06/13 05:29:55;;;;;;;9.03;7.77;;;20.20;96.00;;;;;;5034195;28;20213;-64
2023/06/13 05:32:22;;;;;;;12.17;7.57;;;20.30;96.00;;;;;;5040471;28;20764;-64
2023/06/13 05:34:50;;;;;;;8.20;7.40;;;20.30;95.90;;;;;;5037264;28;20712;-64
2023/06/13 05:37:17;;;;;;;10.47;8.10;;;20.30;95.80;;;;;;5043232;28;20216;-65
2023/06/13 05:39:44;;;;;;;9.97;7.83;;;20.30;95.80;;;;;;5041233;28;20234;-64
2023/06/13 05:42:12;;;;;;;9.73;7.77;;;20.40;95.80;;;;;;5041101;28;20221;-66
2023/06/13 05:44:39;;;;;;;8.73;7.63;;;20.40;95.80;;;;;;5039726;28;20208;-64
2023/06/13 05:47:06;;;;;;;9.17;7.57;;;20.50;95.60;;;;;;5043186;28;20228;-67
2023/06/13 05:49:34;;;;;;;19.20;8.27;;;20.50;95.50;;;;;;5040481;28;20321;-64
2023/06/13 05:52:01;;;;;;;8.77;7.20;;;20.60;95.40;;;;;;5039699;28;20236;-65
2023/06/13 05:54:28;;;;;;;7.87;7.07;;;20.60;95.00;;;;;;5045364;28;20205;-65
2023/06/13 05:56:55;;;;;;;10.10;7.43;;;20.60;95.00;;;;;;5043001;28;20298;-64
2023/06/13 05:59:22;;;;;;;7.60;6.90;;;20.60;94.80;;;;;;5040079;28;20202;-64
2023/06/13 06:01:50;;;;;;;7.50;6.80;;;20.60;94.80;;;;;;5042847;28;20661;-64
2023/06/13 06:04:17;;;;;;;7.67;6.47;;;20.70;94.80;;;;;;5042669;28;20198;-64
2023/06/13 06:06:45;;;;;;;8.93;6.43;;;20.70;94.60;;;;;;5039684;28;20249;-64
2023/06/13 06:09:12;;;;;;;7.73;6.50;;;20.80;94.30;;;;;;5043040;28;20596;-64
2023/06/13 06:11:39;;;;;;;7.80;6.47;;;20.80;94.20;;;;;;5044071;28;20226;-63
2023/06/13 06:14:06;;;;;;;9.60;6.77;;;20.80;94.30;;;;;;5030959;28;20639;-65
2023/06/13 06:16:33;;;;;;;7.67;6.87;;;20.90;94.20;;;;;;5042107;28;20602;-64
2023/06/13 06:19:00;;;;;;;6.80;6.10;;;20.90;94.20;;;;;;5038473;28;20199;-63
2023/06/13 06:21:28;;;;;;;7.53;6.47;;;21.00;94.20;;;;;;5038600;28;20252;-63
2023/06/13 06:23:55;;;;;;;6.53;5.93;;;21.00;94.10;;;;;;5039423;28;20188;-63
2023/06/13 06:26:22;;;;;;;6.73;6.03;;;21.10;93.90;;;;;;5039989;28;20219;-63
2023/06/13 06:28:49;;;;;;;7.10;5.60;;;21.10;93.50;;;;;;5039575;28;20208;-63
2023/06/13 06:31:17;;;;;;;5.83;5.30;;;21.10;93.30;;;;;;5044136;28;20199;-64
2023/06/13 06:33:45;;;;;;;7.27;5.20;;;21.10;93.20;;;;;;5032963;28;20225;-63
2023/06/13 06:36:14;;;;;;;7.77;5.70;;;21.10;93.00;;;;;;5037511;28;20221;-64
2023/06/13 06:38:42;;;;;;;6.77;5.73;;;21.10;93.00;;;;;;5039858;28;20194;-63
2023/06/13 06:41:09;;;;;;;6.17;5.20;;;21.20;93.10;;;;;;5035245;28;20198;-63
2023/06/13 06:43:36;;;;;;;7.43;6.27;;;21.20;92.90;;;;;;5039443;28;20209;-63
2023/06/13 06:46:09;;;;;;;6.03;5.43;;;21.20;92.30;;;;;;5039506;28;20636;-63
2023/06/13 06:48:37;;;;;;;7.37;5.13;;;21.20;92.50;;;;;;5038322;28;20244;-63
2023/06/13 06:51:04;;;;;;;5.93;5.33;;;21.20;92.50;;;;;;5038388;28;20349;-63
2023/06/13 06:53:32;;;;;;;7.13;5.17;;;21.20;92.70;;;;;;5037908;28;20207;-63
2023/06/13 06:55:59;;;;;;;9.63;5.80;;;21.20;92.40;;;;;;5031673;28;20203;-63
2023/06/13 06:58:26;;;;;;;6.93;4.87;;;21.20;92.30;;;;;;5036506;28;20199;-63
2023/06/13 07:00:53;;;;;;;6.00;4.70;;;21.20;92.20;;;;;;5034242;28;20626;-63
2023/06/13 07:03:20;;;;;;;6.03;5.43;;;21.20;92.00;;;;;;5033166;28;20563;-63
2023/06/13 07:05:47;;;;;;;5.63;5.03;;;21.20;91.90;;;;;;5039341;28;20199;-63
2023/06/13 07:08:14;;;;;;;5.77;5.17;;;21.20;91.70;;;;;;5034185;28;20298;-64
2023/06/13 07:10:41;;;;;;;5.57;4.73;;;21.20;91.70;;;;;;5036597;28;20199;-63
2023/06/13 07:13:08;;;;;;;5.00;4.43;;;21.20;91.70;;;;;;5040391;28;20563;-64
2023/06/13 07:15:35;;;;;;;5.57;4.97;;;21.20;91.70;;;;;;5035923;28;20551;-63
2023/06/13 07:18:03;;;;;;;7.73;5.27;;;21.30;91.70;;;;;;5036951;28;20289;-63
2023/06/13 07:20:30;;;;;;;5.47;4.77;;;21.40;91.50;;;;;;5041514;28;20521;-63
2023/06/13 07:22:57;;;;;;;5.00;4.50;;;21.60;91.40;;;;;;5035475;28;20209;-63
2023/06/13 07:25:24;;;;;;;6.73;4.53;;;21.90;91.10;;;;;;5038941;28;20200;-63
2023/06/13 07:27:51;;;;;;;5.87;4.80;;;22.20;90.60;;;;;;5041185;28;20244;-63
2023/06/13 07:30:18;;;;;;;5.23;4.70;;;22.50;90.00;;;;;;5039620;28;20231;-63
2023/06/13 07:32:45;;;;;;;7.47;4.77;;;22.60;88.70;;;;;;5041665;28;20227;-63
2023/06/13 07:35:14;;;;;;;6.77;4.40;;;22.80;88.00;;;;;;5037052;28;20615;-63
2023/06/13 07:37:42;;;;;;;5.50;4.23;;;23.00;87.90;;;;;;5034964;28;20202;-63
2023/06/13 07:40:09;;;;;;;5.03;4.50;;;23.10;86.80;;;;;;5032415;28;20202;-64
2023/06/13 07:42:36;;;;;;;5.67;4.47;;;23.30;85.60;;;;;;5036894;28;20190;-63
2023/06/13 07:45:04;;;;;;;7.73;4.47;;;23.30;85.70;;;;;;5042139;28;20205;-64
2023/06/13 07:47:31;;;;;;;4.70;4.07;;;23.50;84.30;;;;;;5031360;28;20616;-63
2023/06/13 07:49:59;;;;;;;8.10;4.60;;;23.60;83.80;;;;;;5039735;28;20491;-63
2023/06/13 07:52:26;;;;;;;7.30;4.20;;;23.60;82.60;;;;;;5036756;28;20200;-63
2023/06/13 07:54:53;;;;;;;10.50;4.20;;;23.70;82.70;;;;;;5041371;28;20203;-64
2023/06/13 07:57:20;;;;;;;5.80;4.60;;;23.80;83.00;;;;;;5037799;28;20742;-64
2023/06/13 08:00:17;;;;;;;6.57;4.53;;;23.90;83.10;;;;;;5034248;28;20228;-64
2023/06/13 08:02:45;;;;;;;4.53;4.13;;;24.00;82.50;;;;;;5038611;28;20188;-63
2023/06/13 08:05:14;;;;;;;7.00;4.33;;;24.10;80.70;;;;;;5036106;28;20266;-63
2023/06/13 08:07:42;;;;;;;7.03;4.93;;;24.20;81.60;;;;;;5031720;28;20203;-63
2023/06/13 08:10:09;;;;;;;8.40;4.27;;;24.30;80.80;;;;;;5037578;28;20187;-63
2023/06/13 08:12:36;;;;;;;6.40;4.20;;;24.50;80.90;;;;;;5036259;28;20207;-63
2023/06/13 08:15:04;;;;;;;4.70;4.17;;;24.60;79.90;;;;;;5039809;28;20214;-63
2023/06/13 08:17:32;;;;;;;4.53;4.03;;;24.70;79.40;;;;;;5037940;28;20222;-64
2023/06/13 08:19:59;;;;;;;6.40;4.70;;;24.80;79.60;;;;;;5037862;28;20187;-63
2023/06/13 08:22:27;;;;;;;6.47;3.87;;;25.00;78.90;;;;;;5034847;28;20214;-63
2023/06/13 08:24:54;;;;;;;7.27;4.57;;;25.20;78.60;;;;;;5035863;28;20257;-63
2023/06/13 08:27:21;;;;;;;8.33;4.17;;;25.30;76.70;;;;;;5041636;28;20245;-64
2023/06/13 08:29:50;;;;;;;4.73;3.87;;;25.30;76.30;;;;;;5031985;28;20210;-63
2023/06/13 08:32:17;;;;;;;4.07;3.77;;;25.30;77.20;;;;;;5038058;28;20205;-63
2023/06/13 08:34:44;;;;;;;7.23;3.93;;;25.20;75.90;;;;;;5032554;28;20199;-63
2023/06/13 08:37:11;;;;;;;5.20;3.83;;;25.20;75.70;;;;;;5037395;28;20221;-64
2023/06/13 08:39:38;;;;;;;3.83;3.33;;;25.20;75.80;;;;;;5033610;28;20659;-63
2023/06/13 08:42:10;;;;;;;4.13;3.57;;;25.00;75.90;;;;;;5037985;28;20711;-63
2023/06/13 08:44:39;;;;;;;4.43;3.70;;;25.00;77.30;;;;;;5035198;28;20206;-64
2023/06/13 08:47:07;;;;;;;4.40;3.87;;;25.10;77.20;;;;;;5031446;28;20210;-63
2023/06/13 08:49:53;;;;;;;6.67;3.50;;;25.20;76.90;;;;;;5038401;28;20334;-63
2023/06/13 08:52:20;;;;;;;4.17;3.67;;;25.40;77.10;;;;;;5031443;28;20650;-63
2023/06/13 08:54:53;;;;;;;6.03;4.10;;;25.60;76.80;;;;;;5039746;28;20227;-63
2023/06/13 08:57:37;;;;;;;4.43;3.60;;;25.80;76.30;;;;;;5037944;28;20675;-64
2023/06/13 09:00:06;;;;;;;5.47;3.63;;;26.10;73.50;;;;;;5035480;28;20203;-64
2023/06/13 09:02:34;;;;;;;7.07;3.60;;;26.30;73.70;;;;;;5037522;28;20199;-62
2023/06/13 09:05:03;;;;;;;6.33;3.90;;;26.30;73.70;;;;;;5034730;28;20196;-64
2023/06/13 09:07:32;;;;;;;6.73;3.70;;;26.40;72.90;;;;;;5030561;28;20293;-62
2023/06/13 09:10:00;;;;;;;7.53;4.70;;;26.30;71.80;;;;;;5033174;28;20202;-64
2023/06/13 09:12:27;;;;;;;4.70;3.87;;;26.10;72.80;;;;;;5032662;28;20194;-63
2023/06/13 09:14:54;;;;;;;4.80;3.90;;;25.90;73.70;;;;;;5036010;28;20233;-66
2023/06/13 09:17:22;;;;;;;4.60;4.00;;;25.80;74.60;;;;;;5037503;28;20316;-68
2023/06/13 09:19:49;;;;;;;4.73;3.97;;;25.70;75.00;;;;;;5037529;28;20279;-60
2023/06/13 09:22:17;;;;;;;5.37;3.90;;;25.60;75.40;;;;;;5034904;28;20222;-63
2023/06/13 09:24:46;;;;;;;7.77;4.57;;;25.50;75.80;;;;;;5034849;28;20288;-61
2023/06/13 09:27:14;;;;;;;5.40;4.00;;;25.60;74.70;;;;;;5037966;28;20234;-63
2023/06/13 09:29:41;;;;;;;7.00;4.57;;;25.50;75.50;;;;;;5039604;28;20204;-64
2023/06/13 09:32:10;;;;;;;4.03;3.63;;;25.40;76.60;;;;;;5043138;28;20205;-63
2023/06/13 09:34:38;;;;;;;4.90;3.80;;;25.60;76.80;;;;;;5038175;28;20324;-64
2023/06/13 09:37:09;;;;;;;6.03;4.23;;;25.70;76.80;;;;;;5040992;28;20220;-64
2023/06/13 09:39:46;;;;;;;5.07;4.53;;;25.90;76.90;;;;;;5042556;28;20190;-64
2023/06/13 09:42:19;;;;;;;4.03;3.60;;;26.00;76.00;;;;;;5035407;28;20201;-63
2023/06/13 09:44:47;;;;;;;4.40;3.77;;;26.00;75.40;;;;;;5039893;28;20227;-66
2023/06/13 09:47:25;;;;;;;9.10;3.93;;;26.10;74.80;;;;;;5039370;28;20206;-64
2023/06/13 09:49:56;;;;;;;6.53;3.90;;;26.00;73.30;;;;;;5038865;28;20712;-61
2023/06/13 09:52:28;;;;;;;7.97;3.97;;;26.00;74.80;;;;;;5039520;28;20230;-61
2023/06/13 09:54:56;;;;;;;4.93;3.83;;;26.00;75.10;;;;;;5042077;28;20275;-62
2023/06/13 09:57:24;;;;;;;6.00;3.47;;;26.00;75.40;;;;;;5035136;28;20219;-62
2023/06/13 10:00:13;;;;;;;5.10;3.47;;;26.00;75.40;;;;;;5038026;28;20231;-63
2023/06/13 10:02:43;;;;;;;6.10;3.53;;;26.10;75.60;;;;;;5039066;28;20250;-64
2023/06/13 10:05:12;;;;;;;5.93;3.83;;;26.10;74.10;;;;;;5036933;28;20572;-65
2023/06/13 10:07:39;;;;;;;11.50;4.17;;;26.00;74.30;;;;;;5040827;28;20732;-64
2023/06/13 10:10:07;;;;;;;5.93;3.40;;;25.90;73.80;;;;;;5034878;28;20283;-61
2023/06/13 10:12:39;;;;;;;5.83;3.57;;;25.80;74.40;;;;;;5035767;28;20220;-62
2023/06/13 10:15:07;;;;;;;6.37;4.13;;;25.80;74.90;;;;;;5032058;28;20203;-63
2023/06/13 10:17:40;;;;;;;3.90;3.50;;;25.70;74.70;;;;;;5036983;28;20218;-62
2023/06/13 10:20:11;;;;;;;4.53;3.30;;;25.70;74.90;;;;;;5037391;28;20203;-65
2023/06/13 10:22:39;;;;;;;5.83;4.00;;;25.80;75.50;;;;;;5033909;28;20196;-67
2023/06/13 10:25:08;;;;;;;8.40;3.73;;;25.90;75.20;;;;;;5036223;28;20278;-63
2023/06/13 10:27:41;;;;;;;7.40;3.40;;;26.10;75.30;;;;;;5039543;28;20203;-62
2023/06/13 10:30:35;;;;;;;7.40;3.70;;;26.30;74.80;;;;;;5035425;28;20257;-63
2023/06/13 10:33:11;;;;;;;3.73;3.43;;;26.70;74.60;;;;;;5034409;28;20656;-63
2023/06/13 10:36:32;;;;;;;5.40;3.70;;;27.20;73.60;;;;;;5037332;28;20210;-64
2023/06/13 10:39:10;;;;;;;3.97;3.47;;;27.50;71.20;;;;;;5022609;28;20215;-63
2023/06/13 10:42:01;;;;;;;5.03;4.00;;;27.80;70.50;;;;;;5035579;28;20193;-64
2023/06/13 10:44:42;;;;;;;4.10;3.70;;;28.00;67.90;;;;;;5035800;28;20206;-65
2023/06/13 10:47:09;;;;;;;8.07;3.23;;;28.10;68.70;;;;;;5034388;28;20556;-66
2023/06/13 10:49:41;;;;;;;10.10;4.07;;;28.20;68.60;;;;;;5031561;28;20801;-67
2023/06/13 10:52:12;;;;;;;6.77;3.70;;;28.10;67.30;;;;;;5036594;28;20555;-65
2023/06/13 10:54:40;;;;;;;4.13;3.20;;;28.00;66.80;;;;;;5033528;28;20211;-64
2023/06/13 10:57:08;;;;;;;5.07;3.27;;;27.80;67.90;;;;;;5041191;28;20518;-67
2023/06/13 10:59:37;;;;;;;5.67;3.47;;;27.60;68.70;;;;;;5039454;28;20211;-62
2023/06/13 11:02:08;;;;;;;4.87;3.20;;;27.60;70.00;;;;;;5036653;28;20210;-64
2023/06/13 11:04:39;;;;;;;6.80;3.60;;;27.80;70.40;;;;;;5037774;28;20267;-64
2023/06/13 11:07:25;;;;;;;4.97;3.30;;;28.00;69.10;;;;;;5034657;28;20666;-64
2023/06/13 11:10:12;;;;;;;7.73;3.40;;;28.00;69.10;;;;;;5032466;28;20195;-62
2023/06/13 11:12:41;;;;;;;4.90;2.93;;;28.00;66.90;;;;;;5037080;28;20564;-63
2023/06/13 11:15:28;;;;;;;4.60;3.30;;;28.00;67.80;;;;;;5029948;28;20274;-65
2023/06/13 11:18:28;;;;;;;5.13;3.23;;;28.00;67.00;;;;;;5037088;28;20245;-66
2023/06/13 11:20:59;;;;;;;4.63;3.10;;;28.00;65.80;;;;;;5036846;28;20224;-63
2023/06/13 11:23:35;;;;;;;7.73;3.93;;;28.00;67.30;;;;;;5040073;28;20211;-64
2023/06/13 11:26:03;;;;;;;4.50;3.13;;;28.00;65.40;;;;;;5038661;28;20238;-62
2023/06/13 11:28:31;;;;;;;5.23;3.63;;;28.00;65.70;;;;;;5034068;28;20530;-65
2023/06/13 11:31:04;;;;;;;4.37;3.50;;;28.20;67.30;;;;;;5034450;28;20620;-64
2023/06/13 11:33:36;;;;;;;8.40;2.80;;;28.30;67.00;;;;;;5040675;28;20575;-65
2023/06/13 11:36:03;;;;;;;4.20;2.73;;;28.40;66.00;;;;;;5032163;28;20206;-63
2023/06/13 11:38:37;;;;;;;3.70;2.80;;;28.60;66.20;;;;;;5033595;28;20202;-65
2023/06/13 11:41:04;;;;;;;6.70;3.47;;;28.60;66.50;;;;;;5031424;28;20199;-65
2023/06/13 11:43:34;;;;;;;3.67;2.77;;;28.60;64.90;;;;;;5034872;28;20636;-64
2023/06/13 11:46:02;;;;;;;4.07;3.10;;;28.40;64.00;;;;;;5036519;28;20208;-62
2023/06/13 11:48:30;;;;;;;3.40;3.10;;;28.30;64.10;;;;;;5029877;28;20679;-62
2023/06/13 11:51:18;;;;;;;3.77;3.47;;;28.10;66.10;;;;;;5033167;28;20257;-63
2023/06/13 11:53:54;;;;;;;7.47;3.60;;;28.00;67.50;;;;;;5035417;28;20229;-64
2023/06/13 11:56:23;;;;;;;5.70;3.43;;;27.90;66.70;;;;;;5037048;28;20623;-65
2023/06/13 11:58:52;;;;;;;3.67;2.90;;;27.90;66.40;;;;;;5031948;28;20293;-64
2023/06/13 12:01:21;;;;;;;4.50;3.13;;;27.80;65.70;;;;;;5036925;28;20273;-63
2023/06/13 12:03:52;;;;;;;4.07;2.90;;;27.80;65.70;;;;;;5038121;28;20228;-64
2023/06/13 12:06:20;;;;;;;3.07;2.63;;;27.70;65.80;;;;;;5036753;28;20216;-64
2023/06/13 12:08:49;;;;;;;4.53;2.70;;;27.70;65.30;;;;;;5037785;28;20199;-64
2023/06/13 12:11:17;;;;;;;3.20;2.47;;;27.60;65.00;;;;;;5036451;28;20218;-64
2023/06/13 12:14:00;;;;;;;3.57;2.80;;;27.60;66.90;;;;;;5035616;28;20194;-63
2023/06/13 12:16:31;;;;;;;4.47;2.80;;;27.80;67.40;;;;;;5034105;28;20198;-64
2023/06/13 12:19:00;;;;;;;3.67;3.13;;;28.20;67.10;;;;;;5029265;28;20203;-63
2023/06/13 12:21:32;;;;;;;5.20;2.83;;;28.40;65.70;;;;;;5036839;28;20199;-64
2023/06/13 12:24:01;;;;;;;7.00;3.40;;;28.40;63.60;;;;;;5040914;28;20194;-64
2023/06/13 12:26:36;;;;;;;4.17;3.07;;;28.30;63.40;;;;;;5032856;28;20219;-64
2023/06/13 12:29:11;;;;;;;4.90;2.73;;;28.10;65.20;;;;;;5035151;28;20285;-63
2023/06/13 12:31:44;;;;;;;4.97;2.80;;;28.10;66.40;;;;;;5034229;28;20190;-64
2023/06/13 12:34:28;;;;;;;3.43;3.00;;;28.10;65.70;;;;;;5033217;28;20647;-64
2023/06/13 12:37:03;;;;;;;5.00;3.10;;;28.10;66.50;;;;;;5033112;28;20219;-64
2023/06/13 12:39:32;;;;;;;3.47;3.17;;;28.00;65.90;;;;;;5031734;28;20207;-63
2023/06/13 12:42:05;;;;;;;3.80;3.37;;;28.00;64.90;;;;;;5033403;28;20707;-64
2023/06/13 12:44:34;;;;;;;4.03;3.50;;;27.90;65.10;;;;;;5052503;28;20209;-64
2023/06/13 12:47:03;;;;;;;4.63;3.00;;;27.70;65.30;;;;;;5034575;28;20261;-64
2023/06/13 12:49:38;;;;;;;4.00;3.20;;;27.60;66.10;;;;;;5036374;28;20270;-64
2023/06/13 12:52:07;;;;;;;8.67;4.10;;;27.50;65.60;;;;;;5030209;28;20647;-63
2023/06/13 12:54:35;;;;;;;6.53;2.93;;;27.40;66.10;;;;;;5034445;28;20215;-63
2023/06/13 12:57:08;;;;;;;3.87;3.50;;;27.40;67.30;;;;;;5035501;28;20314;-63
2023/06/13 12:59:41;;;;;;;3.97;3.50;;;27.30;65.70;;;;;;5036328;28;20201;-64